createdAt,value
2022-09-01T00:02:04.021Z,21.71
2022-09-01T00:05:44.564Z,21.52
2022-09-01T00:09:31.426Z,21.32
2022-09-01T00:13:21.852Z,21.38
2022-09-01T00:17:09.497Z,21.54
2022-09-01T00:20:57.784Z,21.54
2022-09-01T00:24:46.414Z,21.63
2022-09-01T00:28:34.082Z,21.65
2022-09-01T00:32:22.181Z,21.75
2022-09-01T00:36:10.680Z,21.42
2022-09-01T00:39:58.658Z,21.25
2022-09-01T00:43:52.491Z,21.02
2022-09-01T00:47:44.924Z,21.08
2022-09-01T00:51:32.970Z,20.98
2022-09-01T00:55:20.714Z,21.03
2022-09-01T00:59:08.135Z,20.90
2022-09-01T01:02:55.957Z,20.98
2022-09-01T01:06:36.941Z,20.87
2022-09-01T01:10:24.672Z,20.67
2022-09-01T01:14:12.604Z,20.62
2022-09-01T01:18:00.003Z,20.55
2022-09-01T01:21:45.835Z,20.60
2022-09-01T01:25:33.382Z,20.57
2022-09-01T01:29:20.438Z,20.51
2022-09-01T01:33:08.470Z,20.54
2022-09-01T01:36:54.795Z,20.54
2022-09-01T01:40:43.050Z,20.52
2022-09-01T01:44:31.192Z,20.66
2022-09-01T01:48:18.742Z,20.52
2022-09-01T01:52:08.214Z,20.62
2022-09-01T01:55:44.751Z,20.53
2022-09-01T01:59:32.244Z,20.52
2022-09-01T02:03:19.914Z,20.61
2022-09-01T02:07:09.526Z,20.74
2022-09-01T02:10:57.308Z,20.87
2022-09-01T02:14:45.263Z,20.73
2022-09-01T02:18:33.034Z,20.54
2022-09-01T02:22:20.642Z,20.51
2022-09-01T02:26:16.864Z,20.34
2022-09-01T02:30:04.876Z,20.45
2022-09-01T02:33:52.638Z,20.55
2022-09-01T02:37:44.061Z,20.62
2022-09-01T02:41:31.945Z,21.00
2022-09-01T02:45:20.011Z,20.91
2022-09-01T02:49:08.057Z,20.78
2022-09-01T02:52:55.620Z,20.78
2022-09-01T02:56:43.536Z,20.63
2022-09-01T03:00:31.309Z,20.11
2022-09-01T03:04:19.076Z,20.41
2022-09-01T03:08:07.865Z,20.47
2022-09-01T03:11:55.479Z,20.36
2022-09-01T03:15:43.119Z,20.78
2022-09-01T03:19:30.743Z,21.13
2022-09-01T03:23:19.415Z,21.20
2022-09-01T03:27:07.566Z,21.17
2022-09-01T03:30:55.255Z,21.24
2022-09-01T03:34:43.013Z,21.19
2022-09-01T03:38:32.728Z,20.93
2022-09-01T03:42:20.054Z,21.10
2022-09-01T03:46:07.954Z,21.01
2022-09-01T03:49:47.783Z,20.96
2022-09-01T03:53:15.398Z,20.92
2022-09-01T03:57:03.538Z,20.96
2022-09-01T04:00:51.563Z,20.89
2022-09-01T04:04:20.338Z,20.52
2022-09-01T04:08:07.896Z,20.29
2022-09-01T04:11:58.576Z,20.16
2022-09-01T04:15:46.572Z,20.19
2022-09-01T04:19:40.566Z,20.24
2022-09-01T04:23:31.326Z,20.20
2022-09-01T04:27:18.891Z,20.34
2022-09-01T04:31:07.258Z,20.26
2022-09-01T04:34:58.631Z,20.71
2022-09-01T04:38:46.404Z,20.95
2022-09-01T04:42:35.153Z,20.75
2022-09-01T04:46:24.856Z,20.32
2022-09-01T04:50:13.144Z,20.27
2022-09-01T04:54:03.807Z,20.36
2022-09-01T04:57:52.106Z,20.63
2022-09-01T05:01:39.949Z,20.68
2022-09-01T05:05:27.652Z,20.89
2022-09-01T05:09:15.009Z,20.94
2022-09-01T05:13:06.504Z,21.06
2022-09-01T05:16:57.166Z,21.12
2022-09-01T05:20:42.709Z,21.02
2022-09-01T05:24:23.191Z,21.08
2022-09-01T05:28:11.168Z,20.88
2022-09-01T05:31:58.864Z,20.76
2022-09-01T05:35:46.564Z,20.65
2022-09-01T05:39:34.343Z,20.85
2022-09-01T05:43:21.874Z,20.76
2022-09-01T05:47:10.260Z,20.80
2022-09-01T05:51:22.381Z,21.05
2022-09-01T05:55:15.451Z,21.41
2022-09-01T06:03:08.276Z,21.39
2022-09-01T06:07:06.973Z,21.78
2022-09-01T06:10:55.732Z,21.81
2022-09-01T06:14:43.188Z,21.79
2022-09-01T06:18:30.767Z,21.92
2022-09-01T06:22:18.435Z,22.23
2022-09-01T06:26:07.753Z,22.38
2022-09-01T06:30:00.939Z,22.70
2022-09-01T06:33:48.466Z,22.77
2022-09-01T06:37:39.590Z,23.21
2022-09-01T06:41:28.185Z,23.01
2022-09-01T06:45:15.970Z,23.14
2022-09-01T06:49:06.897Z,23.15
2022-09-01T06:58:03.554Z,23.39
2022-09-01T07:01:11.381Z,23.42
2022-09-01T07:05:02.336Z,23.58
2022-09-01T07:13:05.546Z,25.03
2022-09-01T07:17:23.142Z,26.08
2022-09-01T07:21:36.320Z,27.21
2022-09-01T07:25:14.432Z,27.54
2022-09-01T07:29:11.318Z,26.53
2022-09-01T07:33:41.690Z,26.52
2022-09-01T07:38:47.114Z,26.88
2022-09-01T07:45:29.145Z,27.63
2022-09-01T07:49:51.340Z,27.36
2022-09-01T07:53:28.395Z,27.46
2022-09-01T07:57:16.491Z,28.14
2022-09-01T08:01:05.286Z,28.46
2022-09-01T08:04:56.653Z,27.82
2022-09-01T08:08:45.352Z,28.58
2022-09-01T08:12:34.534Z,28.05
2022-09-01T08:16:24.124Z,28.17
2022-09-01T08:20:14.207Z,28.07
2022-09-01T08:24:14.501Z,27.44
2022-09-01T08:28:04.129Z,27.15
2022-09-01T08:31:52.949Z,29.32
2022-09-01T08:35:40.997Z,29.31
2022-09-01T08:39:28.976Z,28.39
2022-09-01T08:43:32.770Z,27.59
2022-09-01T08:47:28.721Z,28.44
2022-09-01T08:51:20.587Z,28.49
2022-09-01T08:55:49.458Z,29.39
2022-09-01T08:59:37.217Z,29.16
2022-09-01T09:03:52.900Z,28.71
2022-09-01T09:07:53.802Z,28.52
2022-09-01T09:11:54.088Z,29.29
2022-09-01T09:15:42.255Z,27.80
2022-09-01T09:19:33.269Z,27.55
2022-09-01T09:23:21.622Z,27.89
2022-09-01T09:27:11.100Z,27.95
2022-09-01T09:31:04.477Z,28.98
2022-09-01T09:35:07.818Z,29.82
2022-09-01T09:38:56.131Z,29.07
2022-09-01T09:42:44.434Z,29.81
2022-09-01T09:46:33.458Z,30.35
2022-09-01T09:50:24.175Z,30.73
2022-09-01T09:54:14.868Z,29.85
2022-09-01T09:58:05.925Z,28.54
2022-09-01T10:02:00.524Z,28.06
2022-09-01T10:06:08.622Z,28.48
2022-09-01T10:09:56.582Z,29.04
2022-09-01T10:13:44.677Z,29.74
2022-09-01T10:17:34.288Z,30.56
2022-09-01T10:21:26.626Z,30.67
2022-09-01T10:25:17.434Z,30.66
2022-09-01T10:29:06.101Z,32.02
2022-09-01T10:33:01.493Z,31.24
2022-09-01T10:36:58.994Z,29.99
2022-09-01T10:40:52.445Z,29.62
2022-09-01T10:49:27.803Z,30.51
2022-09-01T10:53:17.308Z,31.42
2022-09-01T10:57:12.275Z,30.64
2022-09-01T11:01:21.579Z,30.09
2022-09-01T11:05:10.763Z,31.00
2022-09-01T11:09:08.512Z,31.84
2022-09-01T11:13:18.340Z,32.49
2022-09-01T11:17:18.338Z,31.44
2022-09-01T11:21:07.975Z,31.87
2022-09-01T11:25:00.212Z,30.42
2022-09-01T11:29:08.454Z,31.04
2022-09-01T11:32:56.208Z,32.27
2022-09-01T11:36:44.454Z,31.29
2022-09-01T11:40:47.574Z,31.03
2022-09-01T11:44:35.794Z,31.41
2022-09-01T11:48:26.827Z,30.92
2022-09-01T11:52:23.522Z,30.40
2022-09-01T11:56:11.861Z,29.77
2022-09-01T12:00:12.076Z,29.59
2022-09-01T12:04:01.136Z,29.96
2022-09-01T12:07:54.857Z,29.90
2022-09-01T12:11:43.148Z,29.70
2022-09-01T12:15:43.411Z,29.59
2022-09-01T12:19:46.436Z,30.58
2022-09-01T12:23:36.796Z,31.31
2022-09-01T12:27:24.546Z,31.28
2022-09-01T12:31:12.772Z,31.37
2022-09-01T12:35:13.080Z,29.76
2022-09-01T12:39:18.959Z,29.22
2022-09-01T12:43:07.892Z,29.13
2022-09-01T12:46:56.881Z,29.12
2022-09-01T12:50:45.817Z,29.38
2022-09-01T12:54:33.904Z,30.02
2022-09-01T12:58:35.400Z,29.68
2022-09-01T13:02:26.988Z,30.27
2022-09-01T13:06:21.272Z,30.21
2022-09-01T13:10:10.043Z,29.64
2022-09-01T13:13:58.481Z,29.05
2022-09-01T13:17:46.839Z,29.11
2022-09-01T13:21:35.238Z,30.08
2022-09-01T13:25:23.194Z,29.72
2022-09-01T13:29:19.353Z,29.13
2022-09-01T13:33:23.474Z,28.97
2022-09-01T13:37:20.051Z,29.38
2022-09-01T13:41:08.417Z,29.56
2022-09-01T13:44:57.029Z,30.25
2022-09-01T13:52:55.378Z,29.80
2022-09-01T13:56:43.888Z,30.43
2022-09-01T14:00:34.806Z,30.46
2022-09-01T14:04:23.324Z,30.72
2022-09-01T14:08:12.292Z,29.57
2022-09-01T14:12:17.223Z,30.08
2022-09-01T14:16:06.439Z,29.65
2022-09-01T14:19:59.086Z,29.59
2022-09-01T14:23:49.568Z,29.08
2022-09-01T14:27:39.395Z,29.12
2022-09-01T14:31:30.982Z,29.11
2022-09-01T14:35:18.897Z,29.50
2022-09-01T14:39:11.382Z,29.34
2022-09-01T14:47:19.254Z,28.97
2022-09-01T14:55:29.672Z,29.22
2022-09-01T14:59:20.330Z,28.69
2022-09-01T15:03:10.357Z,28.83
2022-09-01T15:06:58.265Z,28.79
2022-09-01T15:10:51.893Z,28.60
2022-09-01T15:14:39.844Z,28.91
2022-09-01T15:18:29.163Z,28.93
2022-09-01T15:22:19.824Z,28.87
2022-09-01T15:26:19.664Z,29.02
2022-09-01T15:30:07.511Z,28.24
2022-09-01T15:33:55.885Z,28.05
2022-09-01T15:37:46.211Z,28.16
2022-09-01T15:41:36.554Z,28.45
2022-09-01T15:45:25.685Z,28.68
2022-09-01T15:49:13.564Z,28.26
2022-09-01T15:53:01.410Z,27.97
2022-09-01T15:56:49.379Z,28.13
2022-09-01T16:00:37.808Z,27.85
2022-09-01T16:04:33.663Z,27.79
2022-09-01T16:08:21.864Z,28.00
2022-09-01T16:12:09.956Z,28.05
2022-09-01T16:15:57.915Z,28.19
2022-09-01T16:19:54.171Z,28.22
2022-09-01T16:23:45.059Z,28.42
2022-09-01T16:27:33.526Z,28.15
2022-09-01T16:31:21.714Z,28.26
2022-09-01T16:39:26.763Z,28.30
2022-09-01T16:43:32.932Z,28.11
2022-09-01T16:47:20.927Z,27.70
2022-09-01T16:51:10.480Z,27.91
2022-09-01T16:55:07.065Z,28.02
2022-09-01T16:59:07.081Z,27.40
2022-09-01T17:03:06.829Z,27.38
2022-09-01T17:06:54.887Z,27.29
2022-09-01T17:10:43.485Z,26.94
2022-09-01T17:14:41.034Z,27.13
2022-09-01T17:18:52.425Z,27.16
2022-09-01T17:22:43.759Z,27.21
2022-09-01T17:26:36.654Z,27.13
2022-09-01T17:30:27.584Z,27.38
2022-09-01T17:34:18.167Z,27.77
2022-09-01T17:38:05.991Z,27.43
2022-09-01T17:41:50.847Z,26.99
2022-09-01T17:45:38.963Z,27.13
2022-09-01T17:49:37.712Z,27.30
2022-09-01T17:53:31.926Z,27.17
2022-09-01T17:57:33.448Z,27.11
2022-09-01T18:01:20.489Z,27.33
2022-09-01T18:05:09.110Z,27.17
2022-09-01T18:09:21.412Z,27.03
2022-09-01T18:13:10.409Z,26.96
2022-09-01T18:17:00.239Z,27.05
2022-09-01T18:20:52.498Z,26.91
2022-09-01T18:25:00.126Z,26.80
2022-09-01T18:28:49.375Z,26.63
2022-09-01T18:32:49.303Z,26.36
2022-09-01T18:36:49.252Z,26.05
2022-09-01T18:40:42.988Z,26.01
2022-09-01T18:44:43.101Z,25.93
2022-09-01T18:48:31.447Z,25.85
2022-09-01T18:52:21.457Z,25.84
2022-09-01T18:56:37.576Z,25.72
2022-09-01T19:00:33.067Z,25.78
2022-09-01T19:04:29.069Z,25.71
2022-09-01T19:08:20.544Z,25.66
2022-09-01T19:12:25.774Z,25.79
2022-09-01T19:16:24.774Z,26.05
2022-09-01T19:20:28.628Z,25.94
2022-09-01T19:24:28.943Z,25.96
2022-09-01T19:28:18.186Z,26.09
2022-09-01T19:32:09.313Z,26.14
2022-09-01T19:35:58.030Z,26.15
2022-09-01T19:39:49.775Z,25.90
2022-09-01T19:43:43.720Z,26.01
2022-09-01T19:47:36.686Z,26.12
2022-09-01T19:51:24.706Z,26.10
2022-09-01T19:55:13.739Z,26.05
2022-09-01T19:59:08.060Z,26.01
2022-09-01T20:02:56.632Z,25.82
2022-09-01T20:06:54.321Z,25.79
2022-09-01T20:10:55.267Z,25.75
2022-09-01T20:14:46.510Z,25.73
2022-09-01T20:18:37.827Z,25.68
2022-09-01T20:22:30.635Z,25.49
2022-09-01T20:26:26.684Z,25.04
2022-09-01T20:30:30.809Z,24.81
2022-09-01T20:34:19.382Z,24.79
2022-09-01T20:38:18.952Z,24.94
2022-09-01T20:42:09.580Z,24.56
2022-09-01T20:46:00.719Z,24.29
2022-09-01T20:49:49.537Z,24.16
2022-09-01T20:54:08.814Z,24.08
2022-09-01T20:58:24.546Z,24.08
2022-09-01T21:02:17.448Z,24.14
2022-09-01T21:06:05.390Z,24.26
2022-09-01T21:09:55.611Z,24.23
2022-09-01T21:13:43.418Z,24.31
2022-09-01T21:17:43.555Z,24.74
2022-09-01T21:21:40.297Z,24.85
2022-09-01T21:25:27.833Z,24.84
2022-09-01T21:29:15.693Z,24.50
2022-09-01T21:33:03.567Z,24.21
2022-09-01T21:36:51.585Z,24.03
2022-09-01T21:40:43.622Z,24.11
2022-09-01T21:44:34.485Z,24.10
2022-09-01T21:48:22.506Z,24.16
2022-09-01T21:52:10.164Z,24.23
2022-09-01T21:55:57.836Z,24.18
2022-09-01T21:59:45.585Z,23.91
2022-09-01T22:03:33.312Z,23.89
2022-09-01T22:07:20.987Z,24.29
2022-09-01T22:11:08.842Z,24.59
2022-09-01T22:14:56.489Z,24.64
2022-09-01T22:18:44.996Z,24.38
2022-09-01T22:22:32.620Z,23.99
2022-09-01T22:26:20.203Z,23.76
2022-09-01T22:30:08.030Z,23.76
2022-09-01T22:33:56.139Z,23.52
2022-09-01T22:37:43.932Z,23.29
2022-09-01T22:41:32.036Z,23.22
2022-09-01T22:45:19.589Z,23.16
2022-09-01T22:49:07.353Z,23.04
2022-09-01T22:52:55.351Z,23.05
2022-09-01T22:56:43.214Z,23.17
2022-09-01T23:00:30.811Z,23.19
2022-09-01T23:04:18.675Z,23.16
2022-09-01T23:08:06.422Z,23.16
2022-09-01T23:11:54.060Z,23.20
2022-09-01T23:15:41.536Z,23.12
2022-09-01T23:19:28.968Z,23.12
2022-09-01T23:23:16.749Z,23.04
2022-09-01T23:27:04.408Z,22.93
2022-09-01T23:30:52.345Z,22.68
2022-09-01T23:34:40.379Z,22.56
2022-09-01T23:38:28.264Z,22.56
2022-09-01T23:42:15.531Z,22.72
2022-09-01T23:46:03.262Z,22.82
2022-09-01T23:49:52.618Z,22.82
2022-09-01T23:53:41.121Z,22.70
2022-09-01T23:57:29.065Z,22.48
